Time;durP1;ratioP1;P1;durP2;ratioP2;P2;SDS_P1;SDS_P2;PMS_P1;PMS_P2;Temp;Humidity;BMP_temperature;BMP_pressure;BME280_temperature;BME280_humidity;BME280_pressure;Samples;Min_cycle;Max_cycle;Signal;HPM_P1;HPM_P2
2022/10/05 00:02:20;;;;;;;10.43;3.67;;;;;;;11.61;84.32;101207.84;4995510;28;20038;-66
2022/10/05 00:04:50;;;;;;;12.52;3.88;;;;;;;11.61;84.17;101198.16;4988869;28;20053;-66
2022/10/05 00:07:22;;;;;;;8.50;3.80;;;;;;;11.59;84.38;101202.66;4987023;28;20058;-66
2022/10/05 00:09:55;;;;;;;6.75;3.78;;;;;;;11.58;84.74;101208.88;4992038;28;20050;-66
2022/10/05 00:12:23;;;;;;;6.57;3.10;;;;;;;11.47;85.31;101211.22;4993270;28;20518;-65
2022/10/05 00:14:52;;;;;;;8.27;3.67;;;;;;;11.44;85.14;101206.13;4990679;28;20061;-68
2022/10/05 00:17:25;;;;;;;11.98;3.17;;;;;;;11.43;84.96;101199.13;4977857;28;20061;-66
2022/10/05 00:19:52;;;;;;;7.25;3.20;;;;;;;11.47;84.37;101189.28;4982552;28;20241;-66
2022/10/05 00:22:22;;;;;;;7.40;3.13;;;;;;;11.51;84.16;101185.56;4993267;28;20058;-67
2022/10/05 00:24:55;;;;;;;6.13;3.22;;;;;;;11.49;84.41;101197.97;4990679;28;20050;-67
2022/10/05 00:27:24;;;;;;;5.18;2.92;;;;;;;11.48;84.29;101206.78;4989666;28;20137;-67
2022/10/05 00:29:52;;;;;;;5.03;3.00;;;;;;;11.47;84.77;101202.47;4988381;28;20050;-66
2022/10/05 00:32:19;;;;;;;14.15;4.28;;;;;;;11.46;84.96;101196.34;4986082;28;20519;-66
2022/10/05 00:34:47;;;;;;;10.23;3.67;;;;;;;11.38;84.93;101201.16;4983392;28;20491;-66
2022/10/05 00:37:14;;;;;;;10.43;4.40;;;;;;;11.35;85.20;101201.34;4974794;28;20053;-66
2022/10/05 00:39:41;;;;;;;9.77;4.22;;;;;;;11.24;85.82;101207.16;4996403;28;20054;-66
2022/10/05 00:42:28;;;;;;;6.65;3.55;;;;;;;11.25;85.84;101195.69;4996815;28;20058;-67
2022/10/05 00:45:21;;;;;;;10.02;4.22;;;;;;;11.25;85.28;101200.97;4970340;28;20050;-66
2022/10/05 00:47:51;;;;;;;9.98;4.57;;;;;;;11.24;86.66;101186.09;4972524;28;20157;-67
2022/10/05 00:50:29;;;;;;;6.45;3.25;;;;;;;11.21;85.77;101182.75;4986652;28;20407;-66
2022/10/05 00:53:03;;;;;;;7.82;3.30;;;;;;;11.23;86.31;101173.00;4998114;28;20506;-67
2022/10/05 00:55:46;;;;;;;6.78;3.80;;;;;;;11.19;86.37;101174.09;4995174;28;20060;-67
2022/10/05 00:58:36;;;;;;;6.43;3.55;;;;;;;11.19;86.45;101182.84;4977480;28;20070;-65
2022/10/05 01:01:35;;;;;;;6.93;3.65;;;;;;;11.19;86.81;101177.56;4987694;28;20059;-66
2022/10/05 01:04:33;;;;;;;6.75;3.53;;;;;;;11.14;86.75;101162.00;4989543;28;20059;-67
2022/10/05 01:07:25;;;;;;;8.32;3.47;;;;;;;11.13;87.06;101165.56;4968242;28;20050;-66
2022/10/05 01:10:05;;;;;;;8.80;3.88;;;;;;;11.05;87.53;101161.63;4989736;28;20050;-65
2022/10/05 01:12:49;;;;;;;9.20;2.50;;;;;;;11.08;87.18;101166.75;4973208;28;20533;-68
2022/10/05 01:15:24;;;;;;;6.53;3.40;;;;;;;11.14;86.77;101161.16;4988615;28;20054;-66
2022/10/05 01:18:15;;;;;;;6.18;3.25;;;;;;;11.15;86.92;101168.13;4980928;28;20054;-66
2022/10/05 01:20:45;;;;;;;6.55;2.97;;;;;;;11.11;87.13;101177.13;4971248;28;20050;-66
2022/10/05 01:23:39;;;;;;;9.18;3.80;;;;;;;11.00;88.26;101166.31;4991063;28;20163;-66
2022/10/05 01:26:33;;;;;;;7.78;2.92;;;;;;;10.93;88.49;101157.00;4993751;28;20560;-66
2022/10/05 01:29:21;;;;;;;6.47;2.97;;;;;;;10.90;89.23;101145.72;4989251;28;20054;-66
2022/10/05 01:32:09;;;;;;;6.05;3.30;;;;;;;10.87;89.58;101137.09;4992249;28;20043;-66
2022/10/05 01:34:52;;;;;;;5.53;3.10;;;;;;;10.85;89.21;101136.31;4969830;28;20612;-67
2022/10/05 01:37:31;;;;;;;6.82;3.17;;;;;;;10.93;88.80;101155.22;4992684;28;20066;-66
2022/10/05 01:40:18;;;;;;;5.45;2.75;;;;;;;11.03;87.71;101151.19;4992345;28;20568;-67
2022/10/05 01:43:19;;;;;;;11.32;3.30;;;;;;;11.03;87.70;101153.81;4997390;28;20061;-66
2022/10/05 01:46:00;;;;;;;5.05;2.92;;;;;;;10.93;88.59;101154.38;4969589;28;20061;-66
2022/10/05 01:48:51;;;;;;;5.82;3.53;;;;;;;10.80;90.00;101151.50;4979869;28;20046;-66
2022/10/05 01:51:44;;;;;;;9.95;3.10;;;;;;;10.81;89.09;101151.44;4993350;28;20051;-66
2022/10/05 01:54:30;;;;;;;6.00;3.10;;;;;;;10.85;89.17;101144.22;4987889;28;20513;-66
2022/10/05 01:57:15;;;;;;;7.80;3.47;;;;;;;10.77;89.62;101149.91;4993215;28;20336;-66
2022/10/05 02:00:05;;;;;;;7.63;3.03;;;;;;;10.77;89.14;101155.16;4986536;28;20051;-67
2022/10/05 02:02:38;;;;;;;4.88;3.50;;;;;;;10.78;88.94;101156.03;4978381;28;20533;-66
2022/10/05 02:05:10;;;;;;;6.80;3.20;;;;;;;10.77;88.78;101157.81;4972821;28;20053;-66
2022/10/05 02:08:14;;;;;;;4.40;2.90;;;;;;;10.79;88.44;101161.19;4971389;28;20429;-67
2022/10/05 02:10:47;;;;;;;7.95;3.33;;;;;;;10.78;88.10;101158.66;4966377;28;20050;-66
2022/10/05 02:13:29;;;;;;;4.72;2.88;;;;;;;10.73;88.73;101165.94;4969382;28;20430;-66
2022/10/05 02:16:07;;;;;;;6.18;3.15;;;;;;;10.67;89.69;101172.34;4984358;28;20054;-66
2022/10/05 02:18:48;;;;;;;6.20;2.80;;;;;;;10.70;88.93;101171.34;4999189;28;20050;-66
2022/10/05 02:21:16;;;;;;;7.45;2.95;;;;;;;10.69;89.15;101170.50;4976609;28;20057;-67
2022/10/05 02:23:44;;;;;;;6.22;2.92;;;;;;;10.70;88.94;101168.72;4971197;28;20153;-66
2022/10/05 02:26:11;;;;;;;9.05;3.63;;;;;;;10.73;88.38;101166.78;4980968;28;20057;-66
2022/10/05 02:28:46;;;;;;;9.00;4.00;;;;;;;10.78;87.99;101163.91;4965134;28;20046;-66
2022/10/05 02:31:39;;;;;;;5.38;2.83;;;;;;;10.76;88.19;101163.13;4990582;28;20058;-67
2022/10/05 02:34:25;;;;;;;5.30;2.97;;;;;;;10.73;88.00;101168.56;4971197;28;20058;-67
2022/10/05 02:37:30;;;;;;;5.95;2.83;;;;;;;10.75;87.22;101164.06;4985791;28;20053;-66
2022/10/05 02:40:09;;;;;;;5.82;3.10;;;;;;;10.75;87.98;101167.53;4986721;28;20081;-66
2022/10/05 02:43:13;;;;;;;7.97;3.42;;;;;;;10.65;88.42;101168.94;4968644;28;20054;-65
2022/10/05 02:45:59;;;;;;;5.72;3.28;;;;;;;10.61;88.35;101165.63;4990734;28;20121;-66
2022/10/05 02:48:55;;;;;;;5.80;3.15;;;;;;;10.64;87.78;101164.63;4991757;28;20490;-66
2022/10/05 02:51:30;;;;;;;4.13;3.00;;;;;;;10.67;87.08;101153.91;4981761;28;20062;-65
2022/10/05 02:54:11;;;;;;;6.22;2.67;;;;;;;10.70;86.76;101163.44;4974737;28;20058;-66
2022/10/05 02:56:51;;;;;;;7.22;3.30;;;;;;;10.72;87.08;101162.47;4989225;28;20062;-66
2022/10/05 02:59:33;;;;;;;6.25;3.28;;;;;;;10.69;86.62;101159.97;4984911;28;20101;-67
2022/10/05 03:02:12;;;;;;;6.18;3.45;;;;;;;10.62;88.14;101159.41;4975653;28;20054;-66
2022/10/05 03:05:06;;;;;;;6.70;2.85;;;;;;;10.53;88.34;101153.75;4997932;28;20419;-66
2022/10/05 03:08:09;;;;;;;5.13;2.92;;;;;;;10.58;87.78;101141.22;4981275;28;20488;-66
2022/10/05 03:11:00;;;;;;;7.32;3.13;;;;;;;10.62;87.14;101145.41;4978277;28;20059;-67
2022/10/05 03:13:44;;;;;;;8.60;3.03;;;;;;;10.60;87.75;101140.22;4968013;28;20472;-65
2022/10/05 03:16:29;;;;;;;7.10;3.30;;;;;;;10.56;88.73;101141.31;4972653;28;20046;-67
2022/10/05 03:19:35;;;;;;;8.32;3.47;;;;;;;10.48;89.00;101142.63;4988065;28;20561;-66
2022/10/05 03:22:11;;;;;;;6.45;3.63;;;;;;;10.44;89.38;101141.06;4997574;28;20050;-66
2022/10/05 03:24:47;;;;;;;6.90;3.53;;;;;;;10.43;89.16;101134.94;4976703;28;20054;-66
2022/10/05 03:27:17;;;;;;;9.48;2.88;;;;;;;10.50;88.90;101133.72;4997556;28;20046;-66
2022/10/05 03:29:53;;;;;;;6.03;3.08;;;;;;;10.51;88.85;101135.41;4971093;28;20057;-66
2022/10/05 03:32:42;;;;;;;4.97;3.40;;;;;;;10.56;88.44;101129.94;4971493;28;20065;-66
2022/10/05 03:35:27;;;;;;;5.13;2.70;;;;;;;10.52;88.77;101120.47;4996833;28;20172;-66
2022/10/05 03:38:10;;;;;;;5.30;3.10;;;;;;;10.50;88.62;101117.09;4975097;28;20046;-66
2022/10/05 03:41:16;;;;;;;11.10;3.63;;;;;;;10.53;88.54;101116.91;4975100;28;20128;-67
2022/10/05 03:44:08;;;;;;;5.72;3.35;;;;;;;10.57;88.89;101116.66;4991936;28;20069;-66
2022/10/05 03:46:47;;;;;;;6.35;3.22;;;;;;;10.61;88.47;101112.09;4997589;28;20049;-66
2022/10/05 03:49:23;;;;;;;4.75;2.97;;;;;;;10.61;88.84;101114.75;4974331;28;20046;-66
2022/10/05 03:52:18;;;;;;;6.13;3.30;;;;;;;10.56;88.83;101109.72;4994515;28;20054;-67
2022/10/05 03:54:52;;;;;;;9.35;3.50;;;;;;;10.60;88.34;101106.00;4992998;28;20057;-66
2022/10/05 03:57:22;;;;;;;9.68;3.40;;;;;;;10.61;88.52;101104.22;4975858;28;20086;-66
2022/10/05 03:59:59;;;;;;;7.50;3.20;;;;;;;10.59;88.97;101101.66;4988060;28;20050;-67
2022/10/05 04:02:37;;;;;;;7.90;3.17;;;;;;;10.63;88.29;101092.69;4973768;28;20658;-67
2022/10/05 04:05:13;;;;;;;6.57;3.60;;;;;;;10.59;89.52;101095.56;4978686;28;20498;-66
2022/10/05 04:08:02;;;;;;;11.73;4.13;;;;;;;10.48;89.78;101092.59;4989969;28;20098;-66
2022/10/05 04:10:41;;;;;;;8.00;3.47;;;;;;;10.43;89.99;101095.47;4987553;28;20060;-67
2022/10/05 04:13:45;;;;;;;8.32;3.60;;;;;;;10.49;90.20;101095.19;4974275;28;20168;-65
2022/10/05 04:16:15;;;;;;;7.03;3.38;;;;;;;10.46;90.29;101097.09;4989434;28;20411;-66
2022/10/05 04:18:56;;;;;;;6.63;3.22;;;;;;;10.52;89.68;101099.41;4989203;28;20514;-66
2022/10/05 04:21:27;;;;;;;5.85;3.30;;;;;;;10.50;89.96;101094.25;4994929;28;20063;-67
2022/10/05 04:24:02;;;;;;;4.25;2.83;;;;;;;10.52;89.91;101089.72;4958645;28;20316;-66
2022/10/05 04:26:32;;;;;;;5.78;3.95;;;;;;;10.54;89.83;101092.31;4976376;28;20054;-67
2022/10/05 04:29:13;;;;;;;7.80;3.50;;;;;;;10.55;89.71;101097.47;4994294;28;20068;-68
2022/10/05 04:31:51;;;;;;;8.30;3.63;;;;;;;10.59;89.38;101098.19;4983882;28;20371;-66
2022/10/05 04:34:38;;;;;;;9.63;3.90;;;;;;;10.53;90.08;101088.78;4975496;28;20042;-66
2022/10/05 04:37:10;;;;;;;7.35;3.85;;;;;;;10.53;89.84;101091.44;4971770;28;20075;-65
2022/10/05 04:40:14;;;;;;;8.68;3.63;;;;;;;10.50;90.68;101093.38;4971996;28;20054;-66
2022/10/05 04:42:57;;;;;;;7.47;3.95;;;;;;;10.46;90.34;101089.22;4989531;28;20054;-66
2022/10/05 04:45:51;;;;;;;6.25;3.63;;;;;;;10.49;90.20;101089.91;4978906;28;20056;-66
2022/10/05 04:48:43;;;;;;;8.18;3.58;;;;;;;10.50;90.31;101093.38;4973107;28;20055;-67
2022/10/05 04:51:19;;;;;;;7.25;3.33;;;;;;;10.47;90.48;101096.16;4993592;28;20530;-66
2022/10/05 04:53:55;;;;;;;6.15;3.67;;;;;;;10.42;91.03;101096.41;4975047;28;20051;-66
2022/10/05 04:56:42;;;;;;;12.80;3.88;;;;;;;10.46;90.70;101102.38;4993685;28;20054;-66
2022/10/05 04:59:38;;;;;;;9.77;3.70;;;;;;;10.39;91.08;101102.66;4970005;28;20249;-66
2022/10/05 05:02:24;;;;;;;;;;;;;;;10.41;91.07;101102.59;4971023;28;20512;-67
2022/10/05 05:05:32;;;;;;;9.10;3.17;;;;;;;10.47;90.56;101098.81;4990595;28;19922;-66
2022/10/05 05:08:29;;;;;;;6.60;3.28;;;;;;;10.46;90.13;101089.22;4947599;28;20635;-65
2022/10/05 05:11:04;;;;;;;6.60;3.42;;;;;;;10.49;90.21;101089.91;4951798;28;20053;-66
2022/10/05 05:13:56;;;;;;;9.35;4.18;;;;;;;10.46;90.48;101092.69;4982053;28;20046;-66
2022/10/05 05:16:43;;;;;;;9.93;4.32;;;;;;;10.43;90.56;101086.72;4969646;28;20055;-65
2022/10/05 05:19:27;;;;;;;8.73;3.95;;;;;;;10.41;90.99;101085.97;4989115;28;20521;-66
2022/10/05 05:22:04;;;;;;;9.65;4.00;;;;;;;10.42;91.06;101091.16;4985605;28;20045;-66
2022/10/05 05:24:43;;;;;;;12.73;4.55;;;;;;;10.41;91.08;101094.72;4975726;28;20046;-66
2022/10/05 05:27:25;;;;;;;7.78;3.83;;;;;;;10.45;90.82;101101.53;4973103;28;20046;-65
2022/10/05 05:30:02;;;;;;;8.95;4.32;;;;;;;10.46;91.05;101090.06;4971018;28;20430;-66
2022/10/05 05:32:52;;;;;;;10.57;4.60;;;;;;;10.44;91.65;101091.91;4970967;28;20050;-66
2022/10/05 05:35:25;;;;;;;8.25;3.90;;;;;;;10.35;92.48;101081.84;4991864;28;20053;-65
2022/10/05 05:38:01;;;;;;;8.10;3.67;;;;;;;10.34;92.09;101077.50;5018530;22;20057;-64
2022/10/05 05:40:34;;;;;;;8.23;3.85;;;;;;;10.38;91.89;101069.38;4976944;28;20145;-65
2022/10/05 05:43:06;;;;;;;11.60;4.38;;;;;;;10.46;91.52;101066.38;4975769;28;20054;-63
2022/10/05 05:45:52;;;;;;;9.77;4.20;;;;;;;10.53;90.69;101061.63;4964396;28;20049;-65
2022/10/05 05:48:38;;;;;;;;;;;;;;;10.46;92.14;101055.00;4967750;28;20050;-64
2022/10/05 05:51:09;;;;;;;9.00;3.60;;;;;;;10.44;91.58;101062.94;4966515;28;19922;-64
2022/10/05 05:53:42;;;;;;;8.35;3.78;;;;;;;10.50;91.45;101069.69;4967225;28;20537;-64
2022/10/05 05:56:20;;;;;;;11.98;4.15;;;;;;;10.53;91.25;101073.00;4983001;28;20050;-64
2022/10/05 05:59:02;;;;;;;7.53;3.60;;;;;;;10.53;91.14;101090.59;4978346;28;20058;-63
2022/10/05 06:01:33;;;;;;;12.70;4.57;;;;;;;10.56;90.77;101088.66;4981623;28;20046;-64
2022/10/05 06:04:25;;;;;;;7.07;3.78;;;;;;;10.58;90.55;101078.91;4974430;28;20065;-65
2022/10/05 06:06:53;;;;;;;14.45;4.97;;;;;;;10.67;90.68;101076.69;4971693;28;20050;-64
2022/10/05 06:09:24;;;;;;;10.48;4.38;;;;;;;10.67;90.69;101079.34;4972205;28;20042;-64
2022/10/05 06:11:59;;;;;;;12.18;4.18;;;;;;;10.65;90.67;101080.28;4971619;28;20088;-63
2022/10/05 06:14:34;;;;;;;9.32;3.72;;;;;;;10.68;90.30;101070.53;4987476;28;20047;-63
2022/10/05 06:17:16;;;;;;;9.87;4.87;;;;;;;10.73;90.38;101081.66;4984057;28;20525;-62
2022/10/05 06:19:45;;;;;;;10.13;4.60;;;;;;;10.70;90.78;101080.03;4986553;28;20489;-65
2022/10/05 06:22:24;;;;;;;9.65;4.28;;;;;;;10.72;91.01;101082.59;4969915;28;20050;-64
2022/10/05 06:25:13;;;;;;;8.45;4.38;;;;;;;10.71;91.15;101079.09;4971153;28;20506;-64
2022/10/05 06:28:01;;;;;;;7.25;3.67;;;;;;;10.75;90.91;101083.28;4986995;28;20056;-63
2022/10/05 06:30:51;;;;;;;11.23;4.43;;;;;;;10.79;90.76;101091.88;4986997;28;20059;-64
2022/10/05 06:33:23;;;;;;;12.63;4.90;;;;;;;10.76;91.64;101100.81;4959650;28;20117;-64
2022/10/05 06:36:28;;;;;;;7.03;3.63;;;;;;;10.79;91.34;101098.00;4983641;28;20042;-64
2022/10/05 06:39:13;;;;;;;6.82;3.95;;;;;;;10.83;90.86;101096.06;4983611;28;20069;-65
2022/10/05 06:41:53;;;;;;;15.95;4.20;;;;;;;10.84;91.07;101095.97;4983303;28;20061;-64
2022/10/05 06:44:38;;;;;;;6.75;4.25;;;;;;;10.94;90.70;101100.75;4964652;28;20058;-63
2022/10/05 06:47:29;;;;;;;10.52;3.97;;;;;;;10.94;90.15;101100.75;4976468;28;20530;-64
2022/10/05 06:50:31;;;;;;;9.70;3.72;;;;;;;10.87;91.32;101090.53;4990309;28;20402;-64
2022/10/05 06:53:28;;;;;;;7.72;3.78;;;;;;;10.89;91.34;101091.28;4966806;28;20404;-64
2022/10/05 06:56:17;;;;;;;11.73;3.55;;;;;;;11.00;90.88;101100.44;4983762;28;20062;-63
2022/10/05 06:59:18;;;;;;;10.88;3.40;;;;;;;11.00;90.87;101105.72;4986230;28;20046;-62
2022/10/05 07:01:52;;;;;;;8.88;4.13;;;;;;;11.00;91.40;101106.56;4984833;28;20065;-64
2022/10/05 07:04:51;;;;;;;10.03;3.80;;;;;;;11.10;90.79;101096.38;4970130;28;20426;-63
2022/10/05 07:07:33;;;;;;;6.45;3.72;;;;;;;11.15;90.44;101099.59;4988381;28;20042;-65
2022/10/05 07:10:22;;;;;;;8.02;3.80;;;;;;;11.23;90.37;101099.22;4988648;28;20054;-64
2022/10/05 07:12:59;;;;;;;11.13;3.80;;;;;;;11.26;89.65;101096.41;4985511;28;20046;-64
2022/10/05 07:15:43;;;;;;;8.40;3.55;;;;;;;11.30;89.79;101097.91;4986193;28;20058;-64
2022/10/05 07:18:21;;;;;;;9.52;3.58;;;;;;;11.40;89.48;101096.50;4981154;28;20050;-64
2022/10/05 07:21:16;;;;;;;13.80;3.30;;;;;;;11.46;89.12;101104.06;4971114;28;20047;-64
2022/10/05 07:24:07;;;;;;;7.68;3.78;;;;;;;11.51;88.79;101099.38;4980582;28;20060;-64
2022/10/05 07:27:00;;;;;;;6.50;3.40;;;;;;;11.57;88.71;101100.81;4982739;28;20058;-63
2022/10/05 07:29:46;;;;;;;9.95;3.42;;;;;;;11.59;88.48;101097.19;4947784;28;20054;-64
2022/10/05 07:32:20;;;;;;;7.10;3.40;;;;;;;11.63;88.56;101104.00;4964930;28;20399;-62
2022/10/05 07:38:32;;;;;;;8.90;3.28;;;;;;;11.73;88.04;101103.47;4976087;28;20066;-61
2022/10/05 07:41:10;;;;;;;8.82;3.25;;;;;;;11.77;88.62;101102.38;4981536;28;20057;-60
2022/10/05 07:43:55;;;;;;;8.65;3.25;;;;;;;11.87;88.03;101099.16;4965279;28;20046;-62
2022/10/05 07:46:44;;;;;;;11.98;3.42;;;;;;;12.00;87.06;101103.72;4972114;28;20054;-63
2022/10/05 07:49:23;;;;;;;7.13;2.90;;;;;;;12.00;87.08;101109.00;4984607;28;20046;-63
2022/10/05 07:51:54;;;;;;;7.00;2.97;;;;;;;12.09;86.87;101119.88;4969580;28;20046;-60
2022/10/05 07:54:58;;;;;;;5.53;3.17;;;;;;;12.09;86.54;101125.16;4965689;28;20054;-61
2022/10/05 07:57:37;;;;;;;9.57;3.15;;;;;;;12.10;86.26;101105.75;4963238;28;20054;-62
2022/10/05 08:00:21;;;;;;;7.85;3.13;;;;;;;12.10;86.21;101103.09;4966886;28;20058;-62
2022/10/05 08:03:15;;;;;;;5.25;3.00;;;;;;;12.17;86.13;101103.63;4970119;28;20054;-63
2022/10/05 08:05:45;;;;;;;8.25;3.35;;;;;;;12.24;86.28;101109.38;4964398;28;20053;-61
2022/10/05 08:08:48;;;;;;;8.00;3.00;;;;;;;12.31;86.25;101111.59;4979420;28;20175;-62
2022/10/05 08:11:18;;;;;;;5.82;3.40;;;;;;;12.41;86.01;101106.59;4975032;28;20400;-64
2022/10/05 08:13:51;;;;;;;6.57;3.08;;;;;;;12.54;85.37;101106.75;4967570;28;20076;-63
2022/10/05 08:16:19;;;;;;;6.20;3.05;;;;;;;12.63;84.78;101096.47;4986858;28;20049;-62
2022/10/05 08:19:05;;;;;;;6.35;2.75;;;;;;;12.66;84.16;101077.81;4967833;28;20065;-63
2022/10/05 08:21:41;;;;;;;5.80;2.50;;;;;;;12.75;84.11;101078.19;4974720;28;20054;-63
2022/10/05 08:24:33;;;;;;;8.15;2.92;;;;;;;12.85;83.70;101077.53;4966157;28;20131;-63
2022/10/05 08:27:15;;;;;;;7.28;2.75;;;;;;;12.80;83.23;101079.59;4981615;28;20615;-63
2022/10/05 08:29:48;;;;;;;5.57;2.60;;;;;;;12.88;83.17;101079.16;4971079;28;20069;-63
2022/10/05 08:32:23;;;;;;;6.22;2.60;;;;;;;12.92;83.16;101075.34;4982057;28;20517;-61
2022/10/05 08:35:32;;;;;;;9.45;3.15;;;;;;;12.98;82.71;101066.22;4966748;28;20108;-64
2022/10/05 08:38:09;;;;;;;5.40;2.85;;;;;;;13.04;82.76;101052.59;4968903;28;20061;-63
2022/10/05 08:40:45;;;;;;;4.45;2.35;;;;;;;13.14;82.58;101046.63;4967246;28;20058;-63
2022/10/05 08:43:53;;;;;;;10.48;3.08;;;;;;;13.15;82.57;101056.28;4982283;28;20081;-63
2022/10/05 08:46:57;;;;;;;6.45;2.45;;;;;;;13.23;82.67;101054.97;4987208;28;20050;-61
2022/10/05 08:49:55;;;;;;;6.35;2.97;;;;;;;13.32;82.35;101054.38;4987197;28;20073;-62
2022/10/05 08:52:31;;;;;;;8.77;2.90;;;;;;;13.44;81.38;101045.69;4985807;28;20050;-62
2022/10/05 08:55:17;;;;;;;8.30;3.15;;;;;;;13.52;81.06;101039.91;4986091;28;20157;-64
2022/10/05 08:57:46;;;;;;;10.43;2.72;;;;;;;13.56;81.22;101036.97;4988183;28;20072;-62
2022/10/05 09:00:18;;;;;;;9.95;3.83;;;;;;;13.64;81.39;101033.78;4986400;28;20056;-63
2022/10/05 09:03:16;;;;;;;5.97;2.55;;;;;;;13.76;80.65;101038.28;4982150;28;20162;-62
2022/10/05 09:06:21;;;;;;;7.47;2.67;;;;;;;13.78;80.01;101039.06;4982867;28;20057;-64
2022/10/05 09:09:13;;;;;;;7.03;2.80;;;;;;;13.90;79.86;101040.03;4982735;28;20686;-63
2022/10/05 09:12:31;;;;;;;4.85;2.22;;;;;;;13.95;79.19;101045.88;4983529;28;20054;-63
2022/10/05 09:15:18;;;;;;;6.90;2.33;;;;;;;14.02;78.90;101039.22;4949625;28;20058;-62
2022/10/05 09:18:26;;;;;;;7.25;2.63;;;;;;;14.09;78.60;101029.91;4948101;28;20061;-62
2022/10/05 09:20:58;;;;;;;9.70;2.95;;;;;;;14.19;78.83;101036.31;4984489;28;20065;-63
2022/10/05 09:23:42;;;;;;;6.80;2.30;;;;;;;14.22;78.78;101047.63;4978569;28;20668;-63
2022/10/05 09:26:40;;;;;;;11.15;2.70;;;;;;;14.30;78.52;101035.56;4981739;28;20536;-63
2022/10/05 09:29:46;;;;;;;4.95;3.17;;;;;;;14.26;78.01;101030.56;4985306;28;20065;-63
2022/10/05 09:32:23;;;;;;;10.10;2.90;;;;;;;14.31;77.87;101024.00;4983526;28;20105;-63
2022/10/05 09:35:32;;;;;;;8.27;2.50;;;;;;;14.38;78.08;101024.44;4972241;28;20050;-63
2022/10/05 09:38:38;;;;;;;10.50;3.20;;;;;;;14.52;77.41;101018.25;4884760;29;20088;-63
2022/10/05 09:41:47;;;;;;;8.27;2.97;;;;;;;14.55;76.83;101021.53;4982085;28;20538;-63
2022/10/05 09:44:40;;;;;;;5.38;2.80;;;;;;;14.61;77.14;101014.94;4985934;28;20054;-61
2022/10/05 09:47:46;;;;;;;3.95;2.20;;;;;;;14.72;77.45;101020.34;4983078;28;20054;-62
2022/10/05 09:50:44;;;;;;;9.02;3.17;;;;;;;14.79;77.53;101008.34;4989679;28;20109;-63
2022/10/05 09:53:39;;;;;;;9.68;3.38;;;;;;;14.89;75.83;101019.16;4987524;28;20631;-63
2022/10/05 09:56:24;;;;;;;5.72;2.78;;;;;;;15.01;74.90;101007.69;4987972;28;20298;-63
2022/10/05 09:59:17;;;;;;;7.80;3.40;;;;;;;15.04;74.06;101018.09;4983669;28;20046;-64
2022/10/05 10:02:06;;;;;;;6.68;3.13;;;;;;;14.97;73.67;101008.00;4945083;28;20080;-63
2022/10/05 10:05:00;;;;;;;5.85;3.00;;;;;;;15.03;74.30;100997.81;4981279;28;20046;-63
2022/10/05 10:08:05;;;;;;;9.50;2.95;;;;;;;15.08;73.89;101008.09;4980732;28;20050;-63
2022/10/05 10:10:59;;;;;;;6.88;3.55;;;;;;;15.11;73.56;101005.22;4986413;28;20410;-64
2022/10/05 10:13:44;;;;;;;7.45;3.40;;;;;;;15.20;73.91;101000.09;4983704;28;20058;-63
2022/10/05 10:16:14;;;;;;;6.30;2.72;;;;;;;15.22;73.79;101007.09;4972143;28;20065;-63
2022/10/05 10:19:04;;;;;;;4.82;2.55;;;;;;;15.16;74.09;100995.13;4969648;28;20154;-62
2022/10/05 10:21:50;;;;;;;5.93;3.08;;;;;;;15.29;74.22;101011.00;4970495;28;20411;-63
2022/10/05 10:24:34;;;;;;;;;;;;;;;15.27;73.89;100999.66;4985899;28;20034;-63
2022/10/05 10:27:01;;;;;;;4.57;3.30;;;;;;;15.35;73.69;100999.94;4985844;28;20323;-63
2022/10/05 10:29:57;;;;;;;9.38;3.55;;;;;;;15.39;74.12;101010.22;4982082;28;20066;-62
2022/10/05 10:32:56;;;;;;;7.80;2.90;;;;;;;15.51;73.71;101011.13;4960503;28;20371;-64
2022/10/05 10:35:35;;;;;;;8.15;3.00;;;;;;;15.52;73.53;101015.47;4985272;28;20150;-63
2022/10/05 10:38:25;;;;;;;7.03;2.67;;;;;;;15.60;73.64;101014.91;4981724;28;20046;-63
2022/10/05 10:41:04;;;;;;;6.57;3.13;;;;;;;15.67;72.70;101019.69;4983390;28;20050;-62
2022/10/05 10:43:56;;;;;;;6.45;2.85;;;;;;;15.74;72.98;101009.47;4981588;28;20058;-63
2022/10/05 10:46:29;;;;;;;7.65;3.50;;;;;;;15.78;73.36;101010.09;4987893;28;20073;-62
2022/10/05 10:49:11;;;;;;;5.20;2.50;;;;;;;15.82;73.05;101019.53;4986439;28;20058;-61
2022/10/05 10:51:56;;;;;;;5.07;2.85;;;;;;;15.86;72.94;101021.81;4981863;28;20064;-62
2022/10/05 10:54:34;;;;;;;7.00;3.00;;;;;;;15.99;72.11;101020.91;4982806;28;20460;-63
2022/10/05 10:57:02;;;;;;;7.13;2.53;;;;;;;15.99;72.16;101016.44;4986728;28;20132;-63
2022/10/05 10:59:54;;;;;;;6.10;2.88;;;;;;;16.12;72.54;101009.25;4965634;28;20054;-62
2022/10/05 11:02:45;;;;;;;7.70;2.78;;;;;;;16.29;71.84;101017.72;4983845;28;20057;-63
2022/10/05 11:05:12;;;;;;;14.48;3.47;;;;;;;16.33;70.75;101011.22;4969749;28;20052;-63
2022/10/05 11:07:41;;;;;;;9.73;3.50;;;;;;;16.37;71.49;101007.34;4976691;28;20057;-63
2022/10/05 11:10:17;;;;;;;3.80;2.65;;;;;;;16.42;71.42;101002.53;4982440;28;20062;-63
2022/10/05 11:13:02;;;;;;;6.25;2.38;;;;;;;16.52;72.02;101007.97;4976219;28;20080;-63
2022/10/05 11:15:55;;;;;;;6.72;2.50;;;;;;;16.70;71.11;101004.72;4975733;28;20054;-63
2022/10/05 11:18:40;;;;;;;4.78;2.60;;;;;;;16.98;71.09;100993.78;4979225;28;20050;-62
2022/10/05 11:21:29;;;;;;;7.97;2.80;;;;;;;17.28;69.90;100996.59;4977161;28;20061;-63
2022/10/05 11:24:31;;;;;;;8.20;3.67;;;;;;;17.51;68.39;100989.38;4944270;28;20073;-62
2022/10/05 11:27:17;;;;;;;8.13;3.17;;;;;;;17.80;68.42;100983.53;4977756;28;20514;-63
2022/10/05 11:30:14;;;;;;;7.55;3.03;;;;;;;17.93;68.18;100979.69;4978393;28;20055;-63
2022/10/05 11:33:16;;;;;;;7.57;2.80;;;;;;;18.17;67.60;100979.44;4985555;28;20066;-63
2022/10/05 11:36:08;;;;;;;9.85;3.58;;;;;;;18.50;66.91;100971.31;4962731;28;20475;-63
2022/10/05 11:39:06;;;;;;;6.53;3.70;;;;;;;18.82;64.90;100966.75;4964084;28;20065;-63
2022/10/05 11:41:45;;;;;;;6.43;2.90;;;;;;;19.09;64.56;100966.13;5015366;23;20068;-64
2022/10/05 11:44:44;;;;;;;7.85;2.72;;;;;;;19.26;63.36;100966.41;4999515;28;20398;-64
2022/10/05 11:47:27;;;;;;;9.52;3.55;;;;;;;19.03;64.24;100971.97;5025755;28;20049;-64
2022/10/05 11:50:16;;;;;;;7.78;3.10;;;;;;;19.05;63.75;100955.81;5012092;28;20560;-64
2022/10/05 11:53:06;;;;;;;5.80;3.67;;;;;;;19.28;63.24;100954.63;4993681;28;20050;-64
2022/10/05 11:55:44;;;;;;;6.18;3.40;;;;;;;19.32;63.31;100952.50;4999500;28;20058;-64
2022/10/05 11:58:11;;;;;;;9.40;3.28;;;;;;;19.00;63.70;100950.91;5004676;28;20046;-64
2022/10/05 12:00:43;;;;;;;4.43;2.60;;;;;;;18.81;64.58;100953.53;5009550;28;20129;-63
2022/10/05 12:03:38;;;;;;;3.80;2.35;;;;;;;18.65;64.56;100960.19;4992879;28;20053;-63
2022/10/05 12:06:22;;;;;;;11.35;3.20;;;;;;;18.53;64.88;100952.41;5004893;28;20054;-64
2022/10/05 12:08:55;;;;;;;7.20;2.58;;;;;;;18.48;65.42;100948.31;5003638;28;20828;-64
2022/10/05 12:11:41;;;;;;;8.00;3.10;;;;;;;18.46;66.41;100941.41;5009868;28;20062;-64
2022/10/05 12:14:28;;;;;;;4.88;3.00;;;;;;;18.74;66.80;100936.38;5006216;28;20502;-62
2022/10/05 12:17:14;;;;;;;11.20;3.38;;;;;;;19.38;64.99;100938.59;5002242;28;20045;-64
2022/10/05 12:19:45;;;;;;;6.75;2.75;;;;;;;19.84;64.11;100937.91;5006326;28;20195;-64
2022/10/05 12:22:20;;;;;;;7.28;2.90;;;;;;;20.31;63.66;100939.75;4990763;28;20054;-65
2022/10/05 12:25:01;;;;;;;5.05;2.97;;;;;;;20.84;61.01;100931.13;4988156;28;20076;-64
2022/10/05 12:27:36;;;;;;;12.07;3.40;;;;;;;21.02;58.85;100917.78;5007658;28;20696;-64
2022/10/05 12:30:23;;;;;;;5.63;2.42;;;;;;;21.43;57.75;100932.44;5003748;28;20049;-64
2022/10/05 12:33:04;;;;;;;5.40;3.15;;;;;;;21.48;55.97;100922.13;4993592;28;20041;-64
2022/10/05 12:35:41;;;;;;;4.05;2.67;;;;;;;21.56;56.46;100924.03;4991773;28;20057;-64
2022/10/05 12:38:33;;;;;;;6.22;3.20;;;;;;;21.48;55.82;100924.81;5010478;28;20042;-65
2022/10/05 12:41:25;;;;;;;3.60;2.20;;;;;;;21.78;57.03;100912.81;5004811;28;20057;-64
2022/10/05 12:44:07;;;;;;;8.15;2.30;;;;;;;22.18;55.34;100909.59;4990061;28;20057;-64
2022/10/05 12:47:06;;;;;;;9.02;2.22;;;;;;;22.73;55.29;100903.81;4997221;28;20052;-65